sensor_id;sensor_type;location;lat;lon;timestamp;P1;P2;P0
78512;PMS5003;67809;55.034;73.462;2023-07-29T00:01:03;26.75;24.00;17.00
78512;PMS5003;67809;55.034;73.462;2023-07-29T00:03:29;25.75;23.00;16.00
78512;PMS5003;67809;55.034;73.462;2023-07-29T00:05:56;29.00;25.00;17.25
78512;PMS5003;67809;55.034;73.462;2023-07-29T00:08:22;41.25;34.00;22.75
78512;PMS5003;67809;55.034;73.462;2023-07-29T00:10:48;37.00;32.00;22.00
78512;PMS5003;67809;55.034;73.462;2023-07-29T00:13:14;33.33;28.67;20.00
78512;PMS5003;67809;55.034;73.462;2023-07-29T00:15:40;26.00;22.00;15.25
78512;PMS5003;67809;55.034;73.462;2023-07-29T00:18:06;31.00;27.00;18.00
78512;PMS5003;67809;55.034;73.462;2023-07-29T00:20:32;22.00;21.00;14.25
78512;PMS5003;67809;55.034;73.462;2023-07-29T00:22:58;32.00;27.00;19.00
78512;PMS5003;67809;55.034;73.462;2023-07-29T00:25:25;20.00;18.00;13.00
78512;PMS5003;67809;55.034;73.462;2023-07-29T00:27:51;32.75;28.00;19.00
78512;PMS5003;67809;55.034;73.462;2023-07-29T00:30:17;27.00;23.75;16.75
78512;PMS5003;67809;55.034;73.462;2023-07-29T00:32:44;28.00;24.00;17.00
78512;PMS5003;67809;55.034;73.462;2023-07-29T00:35:12;25.00;22.25;14.50
78512;PMS5003;67809;55.034;73.462;2023-07-29T00:37:38;24.00;21.50;15.00
78512;PMS5003;67809;55.034;73.462;2023-07-29T00:40:09;22.00;20.00;13.25
78512;PMS5003;67809;55.034;73.462;2023-07-29T00:42:38;26.00;23.67;16.33
78512;PMS5003;67809;55.034;73.462;2023-07-29T00:45:05;21.00;18.75;13.00
78512;PMS5003;67809;55.034;73.462;2023-07-29T00:47:33;22.75;20.50;14.50
78512;PMS5003;67809;55.034;73.462;2023-07-29T00:49:59;21.00;19.75;13.00
78512;PMS5003;67809;55.034;73.462;2023-07-29T00:52:25;21.00;20.00;15.00
78512;PMS5003;67809;55.034;73.462;2023-07-29T00:54:54;23.50;21.00;13.75
78512;PMS5003;67809;55.034;73.462;2023-07-29T00:57:20;25.50;23.00;15.75
78512;PMS5003;67809;55.034;73.462;2023-07-29T00:59:46;22.50;20.00;14.00
78512;PMS5003;67809;55.034;73.462;2023-07-29T01:02:12;22.00;20.00;14.00
78512;PMS5003;67809;55.034;73.462;2023-07-29T01:04:38;22.75;21.25;15.00
78512;PMS5003;67809;55.034;73.462;2023-07-29T01:09:51;26.00;23.00;16.00
78512;PMS5003;67809;55.034;73.462;2023-07-29T01:17:20;20.00;18.00;13.00
78512;PMS5003;67809;55.034;73.462;2023-07-29T01:22:15;22.75;20.00;14.00
78512;PMS5003;67809;55.034;73.462;2023-07-29T01:24:42;18.00;17.25;12.00
78512;PMS5003;67809;55.034;73.462;2023-07-29T01:27:08;17.00;16.25;12.00
78512;PMS5003;67809;55.034;73.462;2023-07-29T01:29:34;18.50;17.25;13.00
78512;PMS5003;67809;55.034;73.462;2023-07-29T01:32:06;22.25;19.50;13.25
78512;PMS5003;67809;55.034;73.462;2023-07-29T01:34:35;21.00;20.33;15.00
78512;PMS5003;67809;55.034;73.462;2023-07-29T01:37:02;24.00;23.00;17.00
78512;PMS5003;67809;55.034;73.462;2023-07-29T01:39:32;24.00;20.75;14.50
78512;PMS5003;67809;55.034;73.462;2023-07-29T01:42:00;23.75;21.00;15.00
78512;PMS5003;67809;55.034;73.462;2023-07-29T01:44:27;24.00;22.00;15.00
78512;PMS5003;67809;55.034;73.462;2023-07-29T01:46:55;23.00;21.00;14.00
78512;PMS5003;67809;55.034;73.462;2023-07-29T01:49:21;22.00;20.00;14.00
78512;PMS5003;67809;55.034;73.462;2023-07-29T01:51:48;23.00;21.00;15.00
78512;PMS5003;67809;55.034;73.462;2023-07-29T01:54:14;21.00;19.50;13.75
78512;PMS5003;67809;55.034;73.462;2023-07-29T01:56:42;20.75;19.00;14.00
78512;PMS5003;67809;55.034;73.462;2023-07-29T01:59:08;22.00;20.00;14.50
78512;PMS5003;67809;55.034;73.462;2023-07-29T02:01:34;19.00;18.00;13.00
78512;PMS5003;67809;55.034;73.462;2023-07-29T02:04:01;20.00;18.00;14.00
78512;PMS5003;67809;55.034;73.462;2023-07-29T02:06:27;21.00;19.00;14.00
78512;PMS5003;67809;55.034;73.462;2023-07-29T02:08:53;18.50;17.50;13.00
78512;PMS5003;67809;55.034;73.462;2023-07-29T02:11:19;20.00;18.50;13.00
78512;PMS5003;67809;55.034;73.462;2023-07-29T02:13:55;22.00;20.00;15.00
78512;PMS5003;67809;55.034;73.462;2023-07-29T02:16:21;20.25;18.75;12.50
78512;PMS5003;67809;55.034;73.462;2023-07-29T02:18:48;23.00;20.00;14.00
78512;PMS5003;67809;55.034;73.462;2023-07-29T02:21:15;21.25;20.00;15.00
78512;PMS5003;67809;55.034;73.462;2023-07-29T02:23:41;20.67;18.67;13.67
78512;PMS5003;67809;55.034;73.462;2023-07-29T02:26:08;23.50;21.00;15.00
78512;PMS5003;67809;55.034;73.462;2023-07-29T02:28:34;25.00;23.00;16.00
78512;PMS5003;67809;55.034;73.462;2023-07-29T02:31:13;23.00;21.50;16.00
78512;PMS5003;67809;55.034;73.462;2023-07-29T02:33:39;22.00;21.00;16.00
78512;PMS5003;67809;55.034;73.462;2023-07-29T02:36:05;24.00;21.75;16.00
78512;PMS5003;67809;55.034;73.462;2023-07-29T02:38:31;21.75;20.50;15.25
78512;PMS5003;67809;55.034;73.462;2023-07-29T02:40:57;23.00;21.00;16.00
78512;PMS5003;67809;55.034;73.462;2023-07-29T02:43:24;28.00;25.00;17.00
78512;PMS5003;67809;55.034;73.462;2023-07-29T02:45:50;23.00;21.00;16.00
78512;PMS5003;67809;55.034;73.462;2023-07-29T02:48:16;26.00;24.00;16.00
78512;PMS5003;67809;55.034;73.462;2023-07-29T02:50:42;26.00;24.00;18.00
78512;PMS5003;67809;55.034;73.462;2023-07-29T02:53:09;26.00;24.00;17.00
78512;PMS5003;67809;55.034;73.462;2023-07-29T02:55:35;27.50;24.00;17.00
78512;PMS5003;67809;55.034;73.462;2023-07-29T02:58:01;28.25;25.00;17.00
78512;PMS5003;67809;55.034;73.462;2023-07-29T03:00:27;25.00;23.00;16.75
78512;PMS5003;67809;55.034;73.462;2023-07-29T03:02:53;30.00;26.00;19.00
78512;PMS5003;67809;55.034;73.462;2023-07-29T03:05:19;29.00;26.00;18.00
78512;PMS5003;67809;55.034;73.462;2023-07-29T03:07:45;29.00;26.00;18.00
78512;PMS5003;67809;55.034;73.462;2023-07-29T03:10:11;32.75;28.50;20.00
78512;PMS5003;67809;55.034;73.462;2023-07-29T03:12:37;28.75;26.00;19.00
78512;PMS5003;67809;55.034;73.462;2023-07-29T03:15:03;31.00;27.00;19.00
78512;PMS5003;67809;55.034;73.462;2023-07-29T03:17:29;31.50;27.25;19.75
78512;PMS5003;67809;55.034;73.462;2023-07-29T03:19:55;32.00;28.00;20.00
78512;PMS5003;67809;55.034;73.462;2023-07-29T03:22:22;32.00;27.00;20.00
78512;PMS5003;67809;55.034;73.462;2023-07-29T03:24:48;30.33;27.00;19.00
78512;PMS5003;67809;55.034;73.462;2023-07-29T03:27:14;32.00;28.25;20.50
78512;PMS5003;67809;55.034;73.462;2023-07-29T03:29:41;30.75;27.00;19.00
78512;PMS5003;67809;55.034;73.462;2023-07-29T03:32:07;33.00;29.00;20.00
78512;PMS5003;67809;55.034;73.462;2023-07-29T03:34:34;33.00;30.00;21.00
78512;PMS5003;67809;55.034;73.462;2023-07-29T03:37:00;35.00;30.00;21.00
78512;PMS5003;67809;55.034;73.462;2023-07-29T03:39:27;31.00;28.00;19.00
78512;PMS5003;67809;55.034;73.462;2023-07-29T03:41:53;33.00;29.00;20.00
78512;PMS5003;67809;55.034;73.462;2023-07-29T03:44:19;31.00;27.00;20.00
78512;PMS5003;67809;55.034;73.462;2023-07-29T03:46:45;34.25;30.00;20.50
78512;PMS5003;67809;55.034;73.462;2023-07-29T03:49:11;33.50;29.25;21.00
78512;PMS5003;67809;55.034;73.462;2023-07-29T03:51:37;33.00;29.00;21.00
78512;PMS5003;67809;55.034;73.462;2023-07-29T03:54:04;33.00;28.00;19.00
78512;PMS5003;67809;55.034;73.462;2023-07-29T03:56:30;31.50;27.50;19.00
78512;PMS5003;67809;55.034;73.462;2023-07-29T03:59:03;33.00;28.00;20.00
78512;PMS5003;67809;55.034;73.462;2023-07-29T04:01:29;31.75;28.00;19.00
78512;PMS5003;67809;55.034;73.462;2023-07-29T04:03:56;33.00;29.00;20.00
78512;PMS5003;67809;55.034;73.462;2023-07-29T04:06:22;34.00;28.00;20.00
78512;PMS5003;67809;55.034;73.462;2023-07-29T04:08:48;33.00;28.00;20.00
78512;PMS5003;67809;55.034;73.462;2023-07-29T04:11:14;32.25;29.00;20.50
78512;PMS5003;67809;55.034;73.462;2023-07-29T04:13:41;35.75;30.75;21.75
78512;PMS5003;67809;55.034;73.462;2023-07-29T04:16:07;36.00;31.00;21.00
78512;PMS5003;67809;55.034;73.462;2023-07-29T04:18:33;34.00;29.00;21.00
78512;PMS5003;67809;55.034;73.462;2023-07-29T04:20:59;32.75;29.00;19.75
78512;PMS5003;67809;55.034;73.462;2023-07-29T04:23:25;31.50;28.00;19.25
78512;PMS5003;67809;55.034;73.462;2023-07-29T04:25:51;35.00;29.50;20.00
78512;PMS5003;67809;55.034;73.462;2023-07-29T04:28:17;31.25;28.00;20.00
78512;PMS5003;67809;55.034;73.462;2023-07-29T04:30:43;32.25;29.00;21.00
78512;PMS5003;67809;55.034;73.462;2023-07-29T04:33:09;34.00;30.00;21.00
78512;PMS5003;67809;55.034;73.462;2023-07-29T04:35:37;33.75;29.00;20.00
78512;PMS5003;67809;55.034;73.462;2023-07-29T04:38:03;33.00;28.50;20.00
78512;PMS5003;67809;55.034;73.462;2023-07-29T04:40:32;33.75;29.25;20.25
78512;PMS5003;67809;55.034;73.462;2023-07-29T04:43:00;32.50;29.00;20.00
78512;PMS5003;67809;55.034;73.462;2023-07-29T04:45:29;35.75;30.00;20.00
78512;PMS5003;67809;55.034;73.462;2023-07-29T04:47:56;34.00;30.00;21.00
78512;PMS5003;67809;55.034;73.462;2023-07-29T04:50:22;35.00;31.00;21.00
78512;PMS5003;67809;55.034;73.462;2023-07-29T04:52:48;35.00;30.00;22.00
78512;PMS5003;67809;55.034;73.462;2023-07-29T04:55:14;36.00;31.00;20.00
78512;PMS5003;67809;55.034;73.462;2023-07-29T04:57:40;35.00;31.00;21.00
78512;PMS5003;67809;55.034;73.462;2023-07-29T05:00:06;36.00;30.25;21.00
78512;PMS5003;67809;55.034;73.462;2023-07-29T05:02:32;36.00;31.00;21.00
78512;PMS5003;67809;55.034;73.462;2023-07-29T05:04:58;34.00;29.00;21.00
78512;PMS5003;67809;55.034;73.462;2023-07-29T05:07:24;34.00;30.00;20.00
78512;PMS5003;67809;55.034;73.462;2023-07-29T05:09:51;35.00;30.00;21.00
78512;PMS5003;67809;55.034;73.462;2023-07-29T05:12:17;35.00;30.75;21.00
78512;PMS5003;67809;55.034;73.462;2023-07-29T05:14:43;33.00;29.00;20.00
78512;PMS5003;67809;55.034;73.462;2023-07-29T05:17:09;32.25;28.00;19.75
78512;PMS5003;67809;55.034;73.462;2023-07-29T05:19:35;33.75;29.75;21.00
78512;PMS5003;67809;55.034;73.462;2023-07-29T05:22:02;32.00;28.00;20.00
78512;PMS5003;67809;55.034;73.462;2023-07-29T05:24:29;36.00;31.00;21.00
78512;PMS5003;67809;55.034;73.462;2023-07-29T05:26:55;31.00;28.00;19.25
78512;PMS5003;67809;55.034;73.462;2023-07-29T05:29:21;33.00;28.00;20.00
78512;PMS5003;67809;55.034;73.462;2023-07-29T05:31:48;32.00;28.00;19.00
78512;PMS5003;67809;55.034;73.462;2023-07-29T05:34:16;34.00;29.00;21.00
78512;PMS5003;67809;55.034;73.462;2023-07-29T05:36:42;34.00;28.75;19.50
78512;PMS5003;67809;55.034;73.462;2023-07-29T05:39:08;34.00;29.00;19.50
78512;PMS5003;67809;55.034;73.462;2023-07-29T05:41:34;33.00;28.50;19.00
78512;PMS5003;67809;55.034;73.462;2023-07-29T05:44:00;34.00;30.00;21.25
78512;PMS5003;67809;55.034;73.462;2023-07-29T05:46:27;34.00;28.00;19.00
78512;PMS5003;67809;55.034;73.462;2023-07-29T05:48:53;33.00;29.00;19.75
78512;PMS5003;67809;55.034;73.462;2023-07-29T05:51:19;31.50;27.25;18.75
78512;PMS5003;67809;55.034;73.462;2023-07-29T05:53:45;32.00;27.75;19.00
78512;PMS5003;67809;55.034;73.462;2023-07-29T05:56:11;32.00;27.00;18.33
78512;PMS5003;67809;55.034;73.462;2023-07-29T05:58:37;32.00;28.00;19.00
78512;PMS5003;67809;55.034;73.462;2023-07-29T06:01:03;35.00;30.00;21.00
78512;PMS5003;67809;55.034;73.462;2023-07-29T06:03:29;35.75;31.00;20.00
78512;PMS5003;67809;55.034;73.462;2023-07-29T06:05:56;33.33;29.00;20.00
78512;PMS5003;67809;55.034;73.462;2023-07-29T06:08:22;32.50;29.00;21.00
78512;PMS5003;67809;55.034;73.462;2023-07-29T06:10:48;33.00;29.00;20.00
78512;PMS5003;67809;55.034;73.462;2023-07-29T06:13:14;33.00;28.75;19.00
78512;PMS5003;67809;55.034;73.462;2023-07-29T06:15:40;33.67;29.00;21.00
78512;PMS5003;67809;55.034;73.462;2023-07-29T06:18:06;42.75;35.50;23.50
78512;PMS5003;67809;55.034;73.462;2023-07-29T06:20:32;31.75;27.75;19.00
78512;PMS5003;67809;55.034;73.462;2023-07-29T06:23:00;34.00;29.00;19.00
78512;PMS5003;67809;55.034;73.462;2023-07-29T06:25:27;33.00;28.00;19.00
78512;PMS5003;67809;55.034;73.462;2023-07-29T06:27:53;36.00;30.00;21.00
78512;PMS5003;67809;55.034;73.462;2023-07-29T06:30:19;30.25;26.50;18.75
78512;PMS5003;67809;55.034;73.462;2023-07-29T06:32:45;34.00;30.00;20.00
78512;PMS5003;67809;55.034;73.462;2023-07-29T06:35:11;32.00;28.00;20.00
78512;PMS5003;67809;55.034;73.462;2023-07-29T06:37:38;34.75;29.75;20.00
78512;PMS5003;67809;55.034;73.462;2023-07-29T06:40:04;30.00;27.00;19.00
78512;PMS5003;67809;55.034;73.462;2023-07-29T06:42:31;32.00;27.75;18.75
78512;PMS5003;67809;55.034;73.462;2023-07-29T06:44:58;30.00;27.00;19.00
78512;PMS5003;67809;55.034;73.462;2023-07-29T06:47:24;34.33;29.33;20.00
78512;PMS5003;67809;55.034;73.462;2023-07-29T06:49:50;35.25;30.50;20.00
78512;PMS5003;67809;55.034;73.462;2023-07-29T06:52:16;33.00;28.50;19.00
78512;PMS5003;67809;55.034;73.462;2023-07-29T06:54:42;31.00;27.00;19.00
78512;PMS5003;67809;55.034;73.462;2023-07-29T06:57:08;31.00;27.00;19.00
78512;PMS5003;67809;55.034;73.462;2023-07-29T06:59:34;31.00;27.00;19.00
78512;PMS5003;67809;55.034;73.462;2023-07-29T07:02:01;32.00;28.00;19.00
78512;PMS5003;67809;55.034;73.462;2023-07-29T07:04:27;30.00;26.00;18.00
78512;PMS5003;67809;55.034;73.462;2023-07-29T07:06:53;32.25;28.00;19.00
78512;PMS5003;67809;55.034;73.462;2023-07-29T07:09:19;28.00;25.00;17.00
78512;PMS5003;67809;55.034;73.462;2023-07-29T07:11:45;30.00;26.50;19.00
78512;PMS5003;67809;55.034;73.462;2023-07-29T07:14:11;29.00;26.00;18.00
78512;PMS5003;67809;55.034;73.462;2023-07-29T07:16:38;29.25;25.25;17.25
78512;PMS5003;67809;55.034;73.462;2023-07-29T07:19:05;29.00;26.25;18.00
78512;PMS5003;67809;55.034;73.462;2023-07-29T07:21:35;31.00;27.25;19.25
78512;PMS5003;67809;55.034;73.462;2023-07-29T07:24:01;27.50;25.00;16.50
78512;PMS5003;67809;55.034;73.462;2023-07-29T07:26:27;30.00;26.00;18.00
78512;PMS5003;67809;55.034;73.462;2023-07-29T07:28:53;28.00;25.00;18.00
78512;PMS5003;67809;55.034;73.462;2023-07-29T07:31:19;29.00;26.00;17.00
78512;PMS5003;67809;55.034;73.462;2023-07-29T07:33:45;29.75;26.00;18.00
78512;PMS5003;67809;55.034;73.462;2023-07-29T07:36:11;30.00;27.00;18.00
78512;PMS5003;67809;55.034;73.462;2023-07-29T07:38:37;53.00;43.00;28.00
78512;PMS5003;67809;55.034;73.462;2023-07-29T07:41:04;50.25;39.50;24.50
78512;PMS5003;67809;55.034;73.462;2023-07-29T07:43:30;59.00;45.00;28.75
78512;PMS5003;67809;55.034;73.462;2023-07-29T07:46:00;29.25;26.00;19.00
78512;PMS5003;67809;55.034;73.462;2023-07-29T07:48:27;33.00;28.25;18.50
78512;PMS5003;67809;55.034;73.462;2023-07-29T07:50:53;36.75;31.00;21.00
78512;PMS5003;67809;55.034;73.462;2023-07-29T07:53:19;34.00;29.00;19.00
78512;PMS5003;67809;55.034;73.462;2023-07-29T07:55:49;31.00;27.00;17.00
78512;PMS5003;67809;55.034;73.462;2023-07-29T07:58:15;30.25;26.00;18.00
78512;PMS5003;67809;55.034;73.462;2023-07-29T08:00:41;29.50;26.50;18.25
78512;PMS5003;67809;55.034;73.462;2023-07-29T08:03:07;29.00;26.00;18.00
78512;PMS5003;67809;55.034;73.462;2023-07-29T08:05:33;30.75;27.00;18.00
78512;PMS5003;67809;55.034;73.462;2023-07-29T08:07:59;35.00;30.00;20.00
78512;PMS5003;67809;55.034;73.462;2023-07-29T08:10:25;30.50;27.25;18.50
78512;PMS5003;67809;55.034;73.462;2023-07-29T08:12:51;33.00;28.00;19.00
78512;PMS5003;67809;55.034;73.462;2023-07-29T08:15:17;31.00;27.00;18.00
78512;PMS5003;67809;55.034;73.462;2023-07-29T08:17:45;27.25;25.00;17.00
78512;PMS5003;67809;55.034;73.462;2023-07-29T08:20:11;29.00;25.00;17.00
78512;PMS5003;67809;55.034;73.462;2023-07-29T08:22:37;28.00;25.00;17.00
78512;PMS5003;67809;55.034;73.462;2023-07-29T08:25:03;28.00;25.00;17.00
78512;PMS5003;67809;55.034;73.462;2023-07-29T08:27:29;30.00;27.00;18.00
78512;PMS5003;67809;55.034;73.462;2023-07-29T08:29:55;40.00;32.00;20.00
78512;PMS5003;67809;55.034;73.462;2023-07-29T08:32:24;34.25;29.00;19.00
78512;PMS5003;67809;55.034;73.462;2023-07-29T08:34:50;34.75;29.00;19.00
78512;PMS5003;67809;55.034;73.462;2023-07-29T08:37:16;30.00;25.00;17.00
78512;PMS5003;67809;55.034;73.462;2023-07-29T08:39:42;30.00;26.00;18.00
78512;PMS5003;67809;55.034;73.462;2023-07-29T08:42:08;25.75;23.00;16.00
78512;PMS5003;67809;55.034;73.462;2023-07-29T08:44:41;27.25;24.50;17.00
78512;PMS5003;67809;55.034;73.462;2023-07-29T08:47:07;29.67;26.00;17.00
78512;PMS5003;67809;55.034;73.462;2023-07-29T08:49:33;29.00;25.00;17.00
78512;PMS5003;67809;55.034;73.462;2023-07-29T08:51:59;26.00;23.25;16.00
78512;PMS5003;67809;55.034;73.462;2023-07-29T08:54:26;34.00;30.00;21.00
78512;PMS5003;67809;55.034;73.462;2023-07-29T08:56:53;34.67;29.33;20.00
78512;PMS5003;67809;55.034;73.462;2023-07-29T08:59:19;45.50;37.00;24.00
78512;PMS5003;67809;55.034;73.462;2023-07-29T09:01:46;42.75;34.50;22.00
78512;PMS5003;67809;55.034;73.462;2023-07-29T09:04:12;38.00;31.25;20.50
78512;PMS5003;67809;55.034;73.462;2023-07-29T09:06:39;28.25;24.75;16.00
78512;PMS5003;67809;55.034;73.462;2023-07-29T09:09:07;37.25;30.75;20.25
78512;PMS5003;67809;55.034;73.462;2023-07-29T09:11:40;24.00;22.00;16.00
78512;PMS5003;67809;55.034;73.462;2023-07-29T09:14:07;26.50;24.00;17.00
78512;PMS5003;67809;55.034;73.462;2023-07-29T09:16:33;25.00;22.00;16.00
78512;PMS5003;67809;55.034;73.462;2023-07-29T09:19:03;24.75;22.50;15.25
78512;PMS5003;67809;55.034;73.462;2023-07-29T09:21:29;21.75;20.00;14.00
78512;PMS5003;67809;55.034;73.462;2023-07-29T09:23:55;22.00;20.00;14.75
78512;PMS5003;67809;55.034;73.462;2023-07-29T09:26:22;21.00;20.00;14.00
78512;PMS5003;67809;55.034;73.462;2023-07-29T09:28:51;21.00;19.00;13.00
78512;PMS5003;67809;55.034;73.462;2023-07-29T09:31:21;19.00;18.00;13.00
78512;PMS5003;67809;55.034;73.462;2023-07-29T09:33:47;19.00;17.50;13.00
78512;PMS5003;67809;55.034;73.462;2023-07-29T09:36:14;19.75;18.00;13.00
78512;PMS5003;67809;55.034;73.462;2023-07-29T09:38:40;19.33;17.67;13.00
78512;PMS5003;67809;55.034;73.462;2023-07-29T09:41:06;20.00;19.00;14.00
78512;PMS5003;67809;55.034;73.462;2023-07-29T09:43:32;19.00;18.00;14.00
78512;PMS5003;67809;55.034;73.462;2023-07-29T09:46:02;19.00;18.00;13.00
78512;PMS5003;67809;55.034;73.462;2023-07-29T09:48:32;17.00;16.33;12.00
78512;PMS5003;67809;55.034;73.462;2023-07-29T09:50:58;18.00;17.00;12.00
78512;PMS5003;67809;55.034;73.462;2023-07-29T09:53:24;20.00;19.00;13.25
78512;PMS5003;67809;55.034;73.462;2023-07-29T09:55:51;17.50;16.00;12.00
78512;PMS5003;67809;55.034;73.462;2023-07-29T09:58:26;17.33;16.00;12.00
78512;PMS5003;67809;55.034;73.462;2023-07-29T10:00:52;16.00;15.00;11.00
78512;PMS5003;67809;55.034;73.462;2023-07-29T10:03:19;19.00;18.00;13.75
78512;PMS5003;67809;55.034;73.462;2023-07-29T10:05:47;16.00;15.00;11.00
78512;PMS5003;67809;55.034;73.462;2023-07-29T10:08:14;17.33;17.00;12.33
78512;PMS5003;67809;55.034;73.462;2023-07-29T10:10:43;16.00;15.00;11.00
78512;PMS5003;67809;55.034;73.462;2023-07-29T10:13:09;17.75;17.00;12.00
78512;PMS5003;67809;55.034;73.462;2023-07-29T10:15:36;17.00;16.00;12.00
78512;PMS5003;67809;55.034;73.462;2023-07-29T10:18:02;16.50;15.25;11.00
78512;PMS5003;67809;55.034;73.462;2023-07-29T10:20:31;15.25;15.25;11.00
78512;PMS5003;67809;55.034;73.462;2023-07-29T10:22:59;17.00;16.25;12.50
78512;PMS5003;67809;55.034;73.462;2023-07-29T10:25:25;16.00;15.00;11.00
78512;PMS5003;67809;55.034;73.462;2023-07-29T10:27:56;17.00;15.00;11.00
78512;PMS5003;67809;55.034;73.462;2023-07-29T10:30:25;17.00;16.00;11.25
78512;PMS5003;67809;55.034;73.462;2023-07-29T10:32:53;17.00;16.00;11.00
78512;PMS5003;67809;55.034;73.462;2023-07-29T10:35:21;18.00;17.00;11.25
78512;PMS5003;67809;55.034;73.462;2023-07-29T10:37:47;17.00;16.00;11.50
78512;PMS5003;67809;55.034;73.462;2023-07-29T10:40:16;17.00;16.00;11.00
78512;PMS5003;67809;55.034;73.462;2023-07-29T10:45:37;16.00;15.00;11.00
78512;PMS5003;67809;55.034;73.462;2023-07-29T10:48:07;16.67;15.00;11.00
78512;PMS5003;67809;55.034;73.462;2023-07-29T10:50:35;17.00;16.00;11.00
78512;PMS5003;67809;55.034;73.462;2023-07-29T10:53:02;16.00;15.00;11.00
78512;PMS5003;67809;55.034;73.462;2023-07-29T10:55:29;16.00;15.00;11.00
78512;PMS5003;67809;55.034;73.462;2023-07-29T10:58:12;16.00;15.00;12.00
78512;PMS5003;67809;55.034;73.462;2023-07-29T11:00:42;15.00;15.00;11.00
78512;PMS5003;67809;55.034;73.462;2023-07-29T11:03:09;15.00;14.00;10.00
78512;PMS5003;67809;55.034;73.462;2023-07-29T11:06:09;15.00;14.00;10.00
78512;PMS5003;67809;55.034;73.462;2023-07-29T11:08:42;17.00;16.00;11.00
78512;PMS5003;67809;55.034;73.462;2023-07-29T11:11:11;14.00;13.00;10.00
78512;PMS5003;67809;55.034;73.462;2023-07-29T11:13:38;17.75;16.00;13.00
78512;PMS5003;67809;55.034;73.462;2023-07-29T11:16:04;17.00;16.00;11.25
78512;PMS5003;67809;55.034;73.462;2023-07-29T11:18:34;16.00;15.00;11.00
78512;PMS5003;67809;55.034;73.462;2023-07-29T11:21:01;16.00;15.00;11.00
78512;PMS5003;67809;55.034;73.462;2023-07-29T11:23:30;15.75;15.00;11.00
78512;PMS5003;67809;55.034;73.462;2023-07-29T11:25:56;15.50;14.00;10.00
78512;PMS5003;67809;55.034;73.462;2023-07-29T11:28:22;15.00;14.00;10.75
78512;PMS5003;67809;55.034;73.462;2023-07-29T11:30:49;15.75;15.00;10.75
78512;PMS5003;67809;55.034;73.462;2023-07-29T11:33:17;16.00;15.00;11.00
78512;PMS5003;67809;55.034;73.462;2023-07-29T11:35:43;15.00;14.00;10.00
78512;PMS5003;67809;55.034;73.462;2023-07-29T11:38:14;18.00;16.00;11.00
78512;PMS5003;67809;55.034;73.462;2023-07-29T11:40:40;13.75;13.00;9.75
78512;PMS5003;67809;55.034;73.462;2023-07-29T11:43:06;16.00;14.00;11.00
78512;PMS5003;67809;55.034;73.462;2023-07-29T11:45:32;13.00;12.50;9.75
78512;PMS5003;67809;55.034;73.462;2023-07-29T11:48:00;16.00;14.00;10.00
78512;PMS5003;67809;55.034;73.462;2023-07-29T11:50:26;16.00;15.00;11.00
78512;PMS5003;67809;55.034;73.462;2023-07-29T11:52:52;13.75;13.00;10.00
78512;PMS5003;67809;55.034;73.462;2023-07-29T11:55:19;13.50;12.75;9.25
78512;PMS5003;67809;55.034;73.462;2023-07-29T11:57:45;13.00;12.25;10.00
78512;PMS5003;67809;55.034;73.462;2023-07-29T12:00:13;14.00;13.00;9.00
78512;PMS5003;67809;55.034;73.462;2023-07-29T12:02:43;14.00;13.25;11.00
78512;PMS5003;67809;55.034;73.462;2023-07-29T12:05:11;15.00;14.00;9.00
78512;PMS5003;67809;55.034;73.462;2023-07-29T12:07:38;14.00;13.00;9.00
78512;PMS5003;67809;55.034;73.462;2023-07-29T12:10:05;13.00;13.00;9.75
78512;PMS5003;67809;55.034;73.462;2023-07-29T12:12:31;15.00;14.00;10.00
78512;PMS5003;67809;55.034;73.462;2023-07-29T12:14:57;16.00;14.75;10.75
78512;PMS5003;67809;55.034;73.462;2023-07-29T12:17:23;14.25;13.75;9.00
78512;PMS5003;67809;55.034;73.462;2023-07-29T12:19:49;15.00;14.00;10.00
78512;PMS5003;67809;55.034;73.462;2023-07-29T12:22:17;13.50;13.00;9.00
78512;PMS5003;67809;55.034;73.462;2023-07-29T12:24:44;12.00;11.25;9.00
78512;PMS5003;67809;55.034;73.462;2023-07-29T12:27:13;14.00;13.00;9.00
78512;PMS5003;67809;55.034;73.462;2023-07-29T12:29:40;13.00;12.00;8.25
78512;PMS5003;67809;55.034;73.462;2023-07-29T12:32:07;13.00;12.00;8.00
78512;PMS5003;67809;55.034;73.462;2023-07-29T12:34:33;13.00;12.00;10.00
78512;PMS5003;67809;55.034;73.462;2023-07-29T12:37:02;56.00;46.25;28.50
78512;PMS5003;67809;55.034;73.462;2023-07-29T12:39:29;15.00;15.00;11.00
78512;PMS5003;67809;55.034;73.462;2023-07-29T12:41:56;14.50;13.00;10.00
78512;PMS5003;67809;55.034;73.462;2023-07-29T12:44:23;15.00;14.00;10.00
78512;PMS5003;67809;55.034;73.462;2023-07-29T12:46:50;16.75;15.00;11.00
78512;PMS5003;67809;55.034;73.462;2023-07-29T12:49:16;13.00;12.25;9.00
78512;PMS5003;67809;55.034;73.462;2023-07-29T12:51:42;18.00;16.00;11.00
78512;PMS5003;67809;55.034;73.462;2023-07-29T12:54:09;18.00;17.00;12.00
78512;PMS5003;67809;55.034;73.462;2023-07-29T12:56:36;17.00;16.00;11.00
78512;PMS5003;67809;55.034;73.462;2023-07-29T12:59:02;18.00;16.00;11.00
78512;PMS5003;67809;55.034;73.462;2023-07-29T13:01:29;16.00;14.75;10.75
78512;PMS5003;67809;55.034;73.462;2023-07-29T13:03:55;25.50;22.75;15.75
78512;PMS5003;67809;55.034;73.462;2023-07-29T13:06:22;11.75;11.25;9.00
78512;PMS5003;67809;55.034;73.462;2023-07-29T13:08:48;16.67;15.00;11.00
78512;PMS5003;67809;55.034;73.462;2023-07-29T13:11:15;19.00;17.00;12.00
78512;PMS5003;67809;55.034;73.462;2023-07-29T13:13:41;19.00;18.00;12.00
78512;PMS5003;67809;55.034;73.462;2023-07-29T13:16:07;14.00;13.00;9.00
78512;PMS5003;67809;55.034;73.462;2023-07-29T13:18:33;17.00;16.00;11.00
78512;PMS5003;67809;55.034;73.462;2023-07-29T13:20:59;19.00;17.50;12.00
78512;PMS5003;67809;55.034;73.462;2023-07-29T13:23:26;32.25;27.75;19.75
78512;PMS5003;67809;55.034;73.462;2023-07-29T13:25:52;18.50;17.50;13.00
78512;PMS5003;67809;55.034;73.462;2023-07-29T13:28:19;19.75;17.75;12.00
78512;PMS5003;67809;55.034;73.462;2023-07-29T13:30:45;26.25;23.00;15.00
78512;PMS5003;67809;55.034;73.462;2023-07-29T13:33:11;39.00;30.00;19.00
78512;PMS5003;67809;55.034;73.462;2023-07-29T13:35:37;33.00;26.75;17.00
78512;PMS5003;67809;55.034;73.462;2023-07-29T13:38:03;29.75;24.50;16.00
78512;PMS5003;67809;55.034;73.462;2023-07-29T13:40:29;27.75;24.00;16.00
78512;PMS5003;67809;55.034;73.462;2023-07-29T13:42:55;26.50;22.00;15.00
78512;PMS5003;67809;55.034;73.462;2023-07-29T13:45:21;31.25;25.50;17.00